createdAt,value
2018-05-04T00:02:21.315Z,5.00
2018-05-04T00:04:49.546Z,4.60
2018-05-04T00:07:17.766Z,4.60
2018-05-04T00:09:46.032Z,4.50
2018-05-04T00:12:14.250Z,5.23
2018-05-04T00:14:42.490Z,4.97
2018-05-04T00:17:11.122Z,5.03
2018-05-04T00:19:39.438Z,5.00
2018-05-04T00:22:07.666Z,4.50
2018-05-04T00:24:35.903Z,5.17
2018-05-04T00:27:04.158Z,5.23
2018-05-04T00:29:32.396Z,4.80
2018-05-04T00:32:00.631Z,4.87
2018-05-04T00:34:28.879Z,4.90
2018-05-04T00:36:57.094Z,5.30
2018-05-04T00:39:25.327Z,5.00
2018-05-04T00:41:53.604Z,5.37
2018-05-04T00:44:21.844Z,5.53
2018-05-04T00:46:50.156Z,5.40
2018-05-04T00:49:18.427Z,4.73
2018-05-04T00:51:46.697Z,4.80
2018-05-04T00:54:22.859Z,5.20
2018-05-04T00:56:51.134Z,5.50
2018-05-04T00:59:19.374Z,5.03
2018-05-04T01:01:47.590Z,4.93
2018-05-04T01:04:15.840Z,5.20
2018-05-04T01:06:44.847Z,5.10
2018-05-04T01:09:13.097Z,5.50
2018-05-04T01:11:42.112Z,4.53
2018-05-04T01:14:10.391Z,4.57
2018-05-04T01:16:38.607Z,5.47
2018-05-04T01:19:06.843Z,4.77
2018-05-04T01:21:35.377Z,5.07
2018-05-04T01:24:03.694Z,4.80
2018-05-04T01:26:32.434Z,5.63
2018-05-04T01:29:00.639Z,5.60
2018-05-04T01:31:28.862Z,6.00
2018-05-04T01:33:57.100Z,6.57
2018-05-04T01:36:25.331Z,5.50
2018-05-04T01:38:53.572Z,4.93
2018-05-04T01:41:21.791Z,5.33
2018-05-04T01:43:50.796Z,6.50
2018-05-04T01:46:19.788Z,5.70
2018-05-04T01:48:48.014Z,5.43
2018-05-04T01:51:16.247Z,6.00
2018-05-04T01:53:44.479Z,5.50
2018-05-04T01:56:14.206Z,5.83
2018-05-04T01:58:43.230Z,5.77
2018-05-04T02:01:11.478Z,6.17
2018-05-04T02:03:40.486Z,5.90
2018-05-04T02:06:08.759Z,5.93
2018-05-04T02:08:36.980Z,5.90
2018-05-04T02:11:05.215Z,6.13
2018-05-04T02:13:33.446Z,6.43
2018-05-04T02:16:01.755Z,6.13
2018-05-04T02:18:29.990Z,6.23
2018-05-04T02:20:58.216Z,5.97
2018-05-04T02:23:26.445Z,5.87
2018-05-04T02:25:54.671Z,6.17
2018-05-04T02:28:22.900Z,5.80
2018-05-04T02:30:51.901Z,5.30
2018-05-04T02:33:20.911Z,5.97
2018-05-04T02:35:49.159Z,6.23
2018-05-04T02:38:18.171Z,6.00
2018-05-04T02:40:46.425Z,6.17
2018-05-04T02:43:15.438Z,5.80
2018-05-04T02:45:43.718Z,5.40
2018-05-04T02:48:11.934Z,5.87
2018-05-04T02:50:40.162Z,6.20
2018-05-04T02:53:08.802Z,5.80
2018-05-04T02:55:37.018Z,5.60
2018-05-04T02:58:05.951Z,5.97
2018-05-04T03:00:34.179Z,5.93
2018-05-04T03:03:02.456Z,6.60
2018-05-04T03:05:30.709Z,5.83
2018-05-04T03:07:58.914Z,6.10
2018-05-04T03:10:27.147Z,6.10
2018-05-04T03:12:56.130Z,8.00
2018-05-04T03:15:24.465Z,8.00
2018-05-04T03:17:52.676Z,8.10
2018-05-04T03:20:20.902Z,7.67
2018-05-04T03:22:49.142Z,7.90
2018-05-04T03:25:18.147Z,6.73
2018-05-04T03:27:46.391Z,6.47
2018-05-04T03:30:14.630Z,6.90
2018-05-04T03:32:43.243Z,6.33
2018-05-04T03:35:11.435Z,7.07
2018-05-04T03:37:40.450Z,8.07
2018-05-04T03:40:08.681Z,7.00
2018-05-04T03:42:37.004Z,7.40
2018-05-04T03:45:05.272Z,5.90
2018-05-04T03:47:33.561Z,7.33
2018-05-04T03:50:01.780Z,7.33
2018-05-04T03:52:30.016Z,6.70
2018-05-04T03:54:58.271Z,6.40
2018-05-04T04:00:37.926Z,6.80
2018-05-04T04:03:18.639Z,7.83
2018-05-04T04:05:46.867Z,7.83
2018-05-04T04:08:15.118Z,7.50
2018-05-04T04:10:44.123Z,7.50
2018-05-04T04:13:13.114Z,7.67
2018-05-04T04:15:41.342Z,7.53
2018-05-04T04:18:09.572Z,7.57
2018-05-04T04:20:37.796Z,7.27
2018-05-04T04:23:06.051Z,6.93
2018-05-04T04:25:34.275Z,7.07
2018-05-04T04:28:03.263Z,7.23
2018-05-04T04:30:32.261Z,7.60
2018-05-04T04:33:00.487Z,7.33
2018-05-04T04:35:28.727Z,8.30
2018-05-04T04:37:56.952Z,7.47
2018-05-04T04:40:25.183Z,7.40
2018-05-04T04:42:53.415Z,6.43
2018-05-04T04:45:22.420Z,7.10
2018-05-04T04:47:51.411Z,6.60
2018-05-04T04:50:20.406Z,6.57
2018-05-04T04:52:48.627Z,7.17
2018-05-04T04:55:16.863Z,7.87
2018-05-04T04:57:45.085Z,7.50
2018-05-04T05:00:13.315Z,7.60
2018-05-04T05:02:41.540Z,8.20
2018-05-04T05:05:09.779Z,8.23
2018-05-04T05:07:38.019Z,8.20
2018-05-04T05:10:06.281Z,8.17
2018-05-04T05:12:35.267Z,7.70
2018-05-04T05:15:04.275Z,7.53
2018-05-04T05:17:32.499Z,7.20
2018-05-04T05:20:00.749Z,7.60
2018-05-04T05:22:28.977Z,7.37
2018-05-04T05:24:57.212Z,7.80
2018-05-04T05:27:25.438Z,7.60
2018-05-04T05:29:54.446Z,7.37
2018-05-04T05:32:22.678Z,6.27
2018-05-04T05:34:50.899Z,7.17
2018-05-04T05:37:19.130Z,6.80
2018-05-04T05:39:47.351Z,6.90
2018-05-04T05:42:15.596Z,7.50
2018-05-04T05:44:44.879Z,7.40
2018-05-04T05:47:13.113Z,6.97
2018-05-04T05:49:41.356Z,6.97
2018-05-04T05:52:09.585Z,6.63
2018-05-04T05:54:37.856Z,6.87
2018-05-04T05:57:06.047Z,6.10
2018-05-04T05:59:35.047Z,6.67
2018-05-04T06:02:04.052Z,6.47
2018-05-04T06:04:32.276Z,6.67
2018-05-04T06:07:00.564Z,6.23
2018-05-04T06:09:29.164Z,6.23
2018-05-04T06:11:57.399Z,6.07
2018-05-04T06:14:25.658Z,5.90
2018-05-04T06:16:54.627Z,6.37
2018-05-04T06:19:22.857Z,5.70
2018-05-04T06:21:51.096Z,5.43
2018-05-04T06:24:19.335Z,5.70
2018-05-04T06:26:48.327Z,5.03
2018-05-04T06:29:17.327Z,5.30
2018-05-04T06:31:45.571Z,5.20
2018-05-04T06:34:13.794Z,4.90
2018-05-04T06:36:42.039Z,5.70
2018-05-04T06:39:11.029Z,5.03
2018-05-04T06:41:40.052Z,5.10
2018-05-04T06:44:08.289Z,5.23
2018-05-04T06:46:36.502Z,4.70
2018-05-04T06:49:04.748Z,5.13
2018-05-04T06:51:33.743Z,4.50
2018-05-04T06:54:02.043Z,5.00
2018-05-04T06:56:30.221Z,4.60
2018-05-04T06:58:58.467Z,5.00
2018-05-04T07:01:26.694Z,4.93
2018-05-04T07:03:54.959Z,5.43
2018-05-04T07:06:23.184Z,5.00
2018-05-04T07:08:51.482Z,4.80
2018-05-04T07:11:19.651Z,5.13
2018-05-04T07:13:47.895Z,4.87
2018-05-04T07:16:16.891Z,4.73
2018-05-04T07:18:45.903Z,4.57
2018-05-04T07:21:14.131Z,5.37
2018-05-04T07:23:42.367Z,4.70
2018-05-04T07:26:10.601Z,4.50
2018-05-04T07:28:39.615Z,4.93
2018-05-04T07:31:07.836Z,4.80
2018-05-04T07:33:36.078Z,4.70
2018-05-04T07:36:04.355Z,5.00
2018-05-04T07:38:33.306Z,4.80
2018-05-04T07:41:02.304Z,5.07
2018-05-04T07:43:30.545Z,4.90
2018-05-04T07:45:58.768Z,4.63
2018-05-04T07:48:27.007Z,4.60
2018-05-04T07:50:55.998Z,4.70
2018-05-04T07:53:25.034Z,4.60
2018-05-04T07:55:53.254Z,4.37
2018-05-04T07:58:21.500Z,4.53
2018-05-04T08:00:49.739Z,4.10
2018-05-04T08:03:17.976Z,4.57
2018-05-04T08:05:46.220Z,4.87
2018-05-04T08:08:14.446Z,4.03
2018-05-04T08:10:42.693Z,4.10
2018-05-04T08:13:10.914Z,4.07
2018-05-04T08:15:39.150Z,4.10
2018-05-04T08:18:08.147Z,3.70
2018-05-04T08:20:37.154Z,4.07
2018-05-04T08:23:05.389Z,3.93
2018-05-04T08:25:33.627Z,3.80
2018-05-04T08:28:01.855Z,4.20
2018-05-04T08:30:30.863Z,3.73
2018-05-04T08:32:59.094Z,3.90
2018-05-04T08:35:27.400Z,3.83
2018-05-04T08:37:55.556Z,3.50
2018-05-04T08:40:23.800Z,3.70
2018-05-04T08:42:52.054Z,4.03
2018-05-04T08:45:20.282Z,3.73
2018-05-04T08:47:48.506Z,3.37
2018-05-04T08:50:16.742Z,3.30
2018-05-04T08:52:45.739Z,3.40
2018-05-04T08:55:14.750Z,3.30
2018-05-04T08:57:42.983Z,3.00
2018-05-04T09:00:11.226Z,3.50
2018-05-04T09:02:39.455Z,3.10
2018-05-04T09:05:07.800Z,3.30
2018-05-04T09:07:35.937Z,3.23
2018-05-04T09:10:04.203Z,3.10
2018-05-04T09:12:32.434Z,3.13
2018-05-04T09:15:01.436Z,2.80
2018-05-04T09:17:30.438Z,3.10
2018-05-04T09:19:58.669Z,2.77
2018-05-04T09:22:26.924Z,2.67
2018-05-04T09:24:55.155Z,2.77
2018-05-04T09:27:23.403Z,3.20
2018-05-04T09:29:51.635Z,3.10
2018-05-04T09:32:19.875Z,3.20
2018-05-04T09:34:48.903Z,3.30
2018-05-04T09:37:20.536Z,2.90
2018-05-04T09:39:48.726Z,3.33
2018-05-04T09:42:17.263Z,3.20
2018-05-04T09:44:45.476Z,3.07
2018-05-04T09:47:13.730Z,2.90
2018-05-04T09:49:41.955Z,3.70
2018-05-04T09:52:10.211Z,3.03
2018-05-04T09:54:38.447Z,3.70
2018-05-04T09:57:06.689Z,3.60
2018-05-04T09:59:34.920Z,2.90
2018-05-04T10:02:14.673Z,3.07
2018-05-04T10:04:42.908Z,3.23
2018-05-04T10:07:11.927Z,3.50
2018-05-04T10:09:40.156Z,4.00
2018-05-04T10:12:09.167Z,3.53
2018-05-04T10:14:37.407Z,3.00
2018-05-04T10:17:05.659Z,3.40
2018-05-04T10:19:33.887Z,3.10
2018-05-04T10:22:02.231Z,3.20
2018-05-04T10:24:30.367Z,3.23
2018-05-04T10:26:58.595Z,2.83
2018-05-04T10:29:27.635Z,2.87
2018-05-04T10:31:55.866Z,3.70
2018-05-04T10:34:24.871Z,3.53
2018-05-04T10:36:53.103Z,3.10
2018-05-04T10:39:21.528Z,3.17
2018-05-04T10:41:50.022Z,3.10
2018-05-04T10:44:18.531Z,3.30
2018-05-04T10:46:47.559Z,3.57
2018-05-04T10:49:16.690Z,3.17
2018-05-04T10:51:45.435Z,3.43
2018-05-04T10:54:14.215Z,3.40
2018-05-04T10:56:42.975Z,3.37
2018-05-04T10:59:11.340Z,3.67
2018-05-04T11:01:39.880Z,3.17
2018-05-04T11:04:08.921Z,3.60
2018-05-04T11:06:37.143Z,3.33
2018-05-04T11:09:05.384Z,3.60
2018-05-04T11:11:33.617Z,3.40
2018-05-04T11:14:01.863Z,3.10
2018-05-04T11:16:30.317Z,3.40
2018-05-04T11:18:58.559Z,3.47
2018-05-04T11:21:26.823Z,3.47
2018-05-04T11:23:55.053Z,3.20
2018-05-04T11:26:24.047Z,3.67
2018-05-04T11:28:53.195Z,3.63
2018-05-04T11:31:21.425Z,3.40
2018-05-04T11:33:50.914Z,3.80
2018-05-04T11:36:19.975Z,4.10
2018-05-04T11:38:48.299Z,4.03
2018-05-04T11:41:16.476Z,3.80
2018-05-04T11:43:44.740Z,4.23
2018-05-04T11:46:13.736Z,4.40
2018-05-04T11:48:42.419Z,4.30
2018-05-04T11:51:10.886Z,4.10
2018-05-04T11:53:39.888Z,4.67
2018-05-04T11:56:08.140Z,4.73
2018-05-04T11:58:36.379Z,4.93
2018-05-04T12:01:04.619Z,4.47
2018-05-04T12:03:32.843Z,4.40
2018-05-04T12:06:01.087Z,4.27
2018-05-04T12:08:29.313Z,4.20
2018-05-04T12:10:58.323Z,4.13
2018-05-04T12:13:26.550Z,4.10
2018-05-04T12:15:54.797Z,4.20
2018-05-04T12:18:23.023Z,4.20
2018-05-04T12:20:51.263Z,3.50
2018-05-04T12:23:19.482Z,4.20
2018-05-04T12:25:48.499Z,4.13
2018-05-04T12:28:16.728Z,3.83
2018-05-04T12:30:44.967Z,3.57
2018-05-04T12:33:13.194Z,3.77
2018-05-04T12:35:42.210Z,3.77
2018-05-04T12:38:10.439Z,3.57
2018-05-04T12:40:38.678Z,3.83
2018-05-04T12:43:06.903Z,4.00
2018-05-04T12:45:35.923Z,3.53
2018-05-04T12:48:04.153Z,4.20
2018-05-04T12:50:32.379Z,3.63
2018-05-04T12:53:00.615Z,4.27
2018-05-04T12:55:29.625Z,4.10
2018-05-04T12:57:58.625Z,4.60
2018-05-04T13:00:26.855Z,4.77
2018-05-04T13:02:55.095Z,4.67
2018-05-04T13:05:23.318Z,4.87
2018-05-04T13:07:52.332Z,4.40
2018-05-04T13:10:20.559Z,5.17
2018-05-04T13:12:48.806Z,4.40
2018-05-04T13:15:17.035Z,4.97
2018-05-04T13:17:46.045Z,4.83
2018-05-04T13:20:14.271Z,4.83
2018-05-04T13:22:42.526Z,4.70
2018-05-04T13:25:10.779Z,4.90
2018-05-04T13:27:39.018Z,4.90
2018-05-04T13:30:07.239Z,4.50
2018-05-04T13:32:35.488Z,5.07
2018-05-04T13:35:03.724Z,5.20
2018-05-04T13:37:31.963Z,4.83
2018-05-04T13:40:00.959Z,4.30
2018-05-04T13:42:29.202Z,4.90
2018-05-04T13:44:57.435Z,5.00
2018-05-04T13:47:25.822Z,5.07
2018-05-04T13:49:54.827Z,4.77
2018-05-04T13:52:24.208Z,4.77
2018-05-04T13:54:52.412Z,4.90
2018-05-04T13:57:20.660Z,4.53
2018-05-04T13:59:48.894Z,5.20
2018-05-04T14:02:17.455Z,5.00
2018-05-04T14:04:45.694Z,5.27
2018-05-04T14:07:14.695Z,4.30
2018-05-04T14:09:43.703Z,4.10
2018-05-04T14:12:11.932Z,4.30
2018-05-04T14:14:40.236Z,4.47
2018-05-04T14:17:08.531Z,4.20
2018-05-04T14:19:36.769Z,4.17
2018-05-04T14:22:05.777Z,4.20
2018-05-04T14:24:34.763Z,3.97
2018-05-04T14:27:03.760Z,4.03
2018-05-04T14:29:32.776Z,4.17
2018-05-04T14:32:09.131Z,3.90
2018-05-04T14:34:38.116Z,3.53
2018-05-04T14:37:06.346Z,3.90
2018-05-04T14:39:34.579Z,3.43
2018-05-04T14:42:03.119Z,3.60
2018-05-04T14:44:31.359Z,3.13
2018-05-04T14:46:59.599Z,3.37
2018-05-04T14:49:27.849Z,3.70
2018-05-04T14:51:56.843Z,3.80
2018-05-04T14:54:25.860Z,3.40
2018-05-04T14:56:54.090Z,3.67
2018-05-04T14:59:22.331Z,2.90
2018-05-04T15:01:50.556Z,2.93
2018-05-04T15:04:19.560Z,3.03
2018-05-04T15:06:47.782Z,3.10
2018-05-04T15:09:16.017Z,3.00
2018-05-04T15:11:44.251Z,2.97
2018-05-04T15:14:12.496Z,3.17
2018-05-04T15:16:40.731Z,2.83
2018-05-04T15:19:08.955Z,3.00
2018-05-04T15:21:37.195Z,3.00
2018-05-04T15:24:05.432Z,2.77
2018-05-04T15:26:34.453Z,3.23
2018-05-04T15:29:02.738Z,2.70
2018-05-04T15:31:31.045Z,2.80
2018-05-04T15:33:59.982Z,2.53
2018-05-04T15:36:28.237Z,2.97
2018-05-04T15:38:57.229Z,3.00
2018-05-04T15:41:26.247Z,3.00
2018-05-04T15:43:54.650Z,3.37
2018-05-04T15:46:22.865Z,3.10
2018-05-04T15:48:57.852Z,3.60
2018-05-04T15:51:31.919Z,3.30
2018-05-04T15:54:04.283Z,3.10
2018-05-04T15:56:32.505Z,3.40
2018-05-04T15:59:00.731Z,3.13
2018-05-04T16:01:29.738Z,3.10
2018-05-04T16:03:57.962Z,3.23
2018-05-04T16:06:26.215Z,3.33
2018-05-04T16:08:54.451Z,3.63
2018-05-04T16:11:23.491Z,3.30
2018-05-04T16:13:51.719Z,3.37
2018-05-04T16:16:20.731Z,3.80
2018-05-04T16:18:48.968Z,3.30
2018-05-04T16:21:17.210Z,3.30
2018-05-04T16:23:45.438Z,2.90
2018-05-04T16:26:13.680Z,3.27
2018-05-04T16:28:41.908Z,3.40
2018-05-04T16:31:10.151Z,3.30
2018-05-04T16:33:38.383Z,2.90
2018-05-04T16:36:06.620Z,3.13
2018-05-04T16:38:34.858Z,2.80
2018-05-04T16:41:03.851Z,3.37
2018-05-04T16:43:32.858Z,3.17
2018-05-04T16:46:01.090Z,3.17
2018-05-04T16:48:35.525Z,3.03
2018-05-04T16:51:03.723Z,2.53
2018-05-04T16:53:32.730Z,3.20
2018-05-04T16:56:00.975Z,3.00
2018-05-04T16:58:29.213Z,3.63
2018-05-04T17:00:57.733Z,3.30
2018-05-04T17:03:25.974Z,3.13
2018-05-04T17:05:54.200Z,3.63
2018-05-04T17:08:28.357Z,3.30
2018-05-04T17:10:57.194Z,3.33
2018-05-04T17:13:25.439Z,3.13
2018-05-04T17:15:53.715Z,3.23
2018-05-04T17:18:21.931Z,3.50
2018-05-04T17:20:50.168Z,3.20
2018-05-04T17:23:18.408Z,3.30
2018-05-04T17:25:46.663Z,3.20
2018-05-04T17:28:14.876Z,3.37
2018-05-04T17:30:43.106Z,3.60
2018-05-04T17:33:11.348Z,3.90
2018-05-04T17:35:41.932Z,3.73
2018-05-04T17:38:10.977Z,4.07
2018-05-04T17:40:39.208Z,3.50
2018-05-04T17:43:07.464Z,3.87
2018-05-04T17:45:36.459Z,3.73
2018-05-04T17:48:04.686Z,3.37
2018-05-04T17:50:32.928Z,3.43
2018-05-04T17:53:01.155Z,3.37
2018-05-04T17:55:29.418Z,3.10
2018-05-04T17:57:57.652Z,3.33
2018-05-04T18:00:25.891Z,3.50
2018-05-04T18:02:54.136Z,3.03
2018-05-04T18:05:22.380Z,3.50
2018-05-04T18:07:50.608Z,3.50
2018-05-04T18:10:18.883Z,3.40
2018-05-04T18:12:47.840Z,3.83
2018-05-04T18:15:16.857Z,3.47
2018-05-04T18:17:45.087Z,3.60
2018-05-04T18:20:13.329Z,3.60
2018-05-04T18:22:41.550Z,3.73
2018-05-04T18:25:10.563Z,4.10
2018-05-04T18:27:38.791Z,4.00
2018-05-04T18:30:07.035Z,3.70
2018-05-04T18:32:35.259Z,3.80
2018-05-04T18:35:04.277Z,4.20
2018-05-04T18:37:32.504Z,4.20
2018-05-04T18:40:00.742Z,4.10
2018-05-04T18:42:28.972Z,4.57
2018-05-04T18:44:57.979Z,4.40
2018-05-04T18:47:26.206Z,4.17
2018-05-04T18:49:54.451Z,4.70
2018-05-04T18:52:22.682Z,4.90
2018-05-04T18:54:59.481Z,4.60
2018-05-04T18:57:28.673Z,4.60
2018-05-04T18:59:57.880Z,4.30
2018-05-04T19:02:31.771Z,4.80
2018-05-04T19:05:00.018Z,4.90
2018-05-04T19:07:28.254Z,4.53
2018-05-04T19:09:56.495Z,5.27
2018-05-04T19:12:24.748Z,4.90
2018-05-04T19:14:52.967Z,5.03
2018-05-04T19:17:21.216Z,5.23
2018-05-04T19:19:49.443Z,4.83
2018-05-04T19:22:17.682Z,4.67
2018-05-04T19:24:45.911Z,4.50
2018-05-04T19:27:14.152Z,5.40
2018-05-04T19:29:42.387Z,4.60
2018-05-04T19:32:10.634Z,5.07
2018-05-04T19:34:38.874Z,4.70
2018-05-04T19:37:07.105Z,5.37
2018-05-04T19:39:35.339Z,4.73
2018-05-04T19:42:03.639Z,4.90
2018-05-04T19:44:31.884Z,5.00
2018-05-04T19:47:00.823Z,4.50
2018-05-04T19:49:29.058Z,5.00
2018-05-04T19:51:57.285Z,5.57
2018-05-04T19:54:25.510Z,4.90
2018-05-04T19:56:53.814Z,5.47
2018-05-04T19:59:21.978Z,5.30
2018-05-04T20:01:50.221Z,5.00
2018-05-04T20:04:18.809Z,5.60
2018-05-04T20:06:47.034Z,4.77
2018-05-04T20:09:15.264Z,5.23
2018-05-04T20:11:43.490Z,5.27
2018-05-04T20:14:11.732Z,5.67
2018-05-04T20:16:39.959Z,5.17
2018-05-04T20:19:08.200Z,5.07
2018-05-04T20:21:36.427Z,5.73
2018-05-04T20:24:04.670Z,5.40
2018-05-04T20:26:33.153Z,5.10
2018-05-04T20:29:01.424Z,5.40
2018-05-04T20:31:30.372Z,5.40
2018-05-04T20:33:58.613Z,5.50
2018-05-04T20:36:26.846Z,5.10
2018-05-04T20:38:55.079Z,5.23
2018-05-04T20:41:25.340Z,5.10
2018-05-04T20:43:53.647Z,5.50
2018-05-04T20:46:22.667Z,5.10
2018-05-04T20:48:51.844Z,5.13
2018-05-04T20:51:20.162Z,5.10
2018-05-04T20:53:48.664Z,5.07
2018-05-04T20:56:17.730Z,4.77
2018-05-04T20:58:45.990Z,4.63
2018-05-04T21:01:14.382Z,5.00
2018-05-04T21:03:42.909Z,4.40
2018-05-04T21:06:11.305Z,5.03
2018-05-04T21:08:39.790Z,4.57
2018-05-04T21:11:08.123Z,5.03
2018-05-04T21:13:36.402Z,4.93
2018-05-04T21:16:04.834Z,4.93
2018-05-04T21:18:33.285Z,5.10
2018-05-04T21:21:01.494Z,5.00
2018-05-04T21:23:29.772Z,4.80
2018-05-04T21:25:58.114Z,4.67
2018-05-04T21:28:26.732Z,5.07
2018-05-04T21:30:55.016Z,4.63
2018-05-04T21:33:23.246Z,4.20
2018-05-04T21:35:51.730Z,5.20
2018-05-04T21:38:20.771Z,4.80
2018-05-04T21:40:49.046Z,4.83
2018-05-04T21:43:17.271Z,4.60
2018-05-04T21:45:45.551Z,4.73
2018-05-04T21:48:14.759Z,4.47
2018-05-04T21:50:43.996Z,4.87
2018-05-04T21:53:12.215Z,4.73
2018-05-04T21:55:40.461Z,4.60
2018-05-04T21:58:08.779Z,4.17
2018-05-04T22:00:37.817Z,5.00
2018-05-04T22:03:06.132Z,4.70
2018-05-04T22:05:34.358Z,4.60
2018-05-04T22:08:02.590Z,4.13
2018-05-04T22:10:30.995Z,4.47
2018-05-04T22:12:59.226Z,4.67
2018-05-04T22:15:27.485Z,4.23
2018-05-04T22:17:56.539Z,4.07
2018-05-04T22:20:24.840Z,4.60
2018-05-04T22:22:53.270Z,4.40
2018-05-04T22:25:21.838Z,4.90
2018-05-04T22:27:50.834Z,4.23
2018-05-04T22:30:19.852Z,4.53
2018-05-04T22:32:48.093Z,4.40
2018-05-04T22:35:16.311Z,4.20
2018-05-04T22:37:44.939Z,4.20
2018-05-04T22:40:13.149Z,4.23
2018-05-04T22:42:41.700Z,4.57
2018-05-04T22:45:09.928Z,4.30
2018-05-04T22:47:38.170Z,4.23
2018-05-04T22:50:06.395Z,4.40
2018-05-04T22:52:34.635Z,4.27
2018-05-04T22:55:02.855Z,4.33
2018-05-04T22:57:31.100Z,4.27
2018-05-04T22:59:59.325Z,4.10
2018-05-04T23:02:28.331Z,4.60
2018-05-04T23:04:56.556Z,4.00
2018-05-04T23:07:24.790Z,3.87
2018-05-04T23:09:53.006Z,3.87
2018-05-04T23:12:21.291Z,3.60
2018-05-04T23:14:49.499Z,3.77
2018-05-04T23:17:17.732Z,3.90
2018-05-04T23:19:45.952Z,4.00
2018-05-04T23:22:29.091Z,4.10
2018-05-04T23:24:57.322Z,3.70
2018-05-04T23:27:25.555Z,3.70
2018-05-04T23:29:53.783Z,3.60
2018-05-04T23:32:22.791Z,3.50
2018-05-04T23:34:51.017Z,4.10
2018-05-04T23:37:19.255Z,3.43
2018-05-04T23:39:47.482Z,3.20
2018-05-04T23:42:16.870Z,3.20
2018-05-04T23:44:45.066Z,3.30
2018-05-04T23:47:14.087Z,3.37
2018-05-04T23:49:42.351Z,3.40
2018-05-04T23:52:10.573Z,3.00
2018-05-04T23:54:38.814Z,2.73
2018-05-04T23:57:07.044Z,3.20
2018-05-04T23:59:35.267Z,2.70
